createdAt,value
2023-02-27T00:00:14.904Z,7.71
2023-02-27T00:02:43.674Z,7.70
2023-02-27T00:05:12.916Z,7.73
2023-02-27T00:07:42.051Z,7.78
2023-02-27T00:10:13.829Z,7.49
2023-02-27T00:12:42.590Z,7.75
2023-02-27T00:15:14.685Z,7.75
2023-02-27T00:17:43.310Z,7.70
2023-02-27T00:20:15.530Z,7.71
2023-02-27T00:22:44.535Z,7.63
2023-02-27T00:25:14.069Z,7.65
2023-02-27T00:27:42.617Z,7.65
2023-02-27T00:30:16.440Z,7.52
2023-02-27T00:32:45.761Z,7.58
2023-02-27T00:35:14.353Z,7.65
2023-02-27T00:37:42.674Z,7.61
2023-02-27T00:40:12.953Z,7.53
2023-02-27T00:42:41.390Z,7.56
2023-02-27T00:45:12.282Z,7.62
2023-02-27T00:47:40.633Z,7.64
2023-02-27T00:50:10.543Z,7.59
2023-02-27T00:52:38.978Z,7.52
2023-02-27T00:55:08.825Z,7.54
2023-02-27T00:57:37.705Z,7.48
2023-02-27T01:00:08.591Z,7.27
2023-02-27T01:02:39.007Z,7.22
2023-02-27T01:05:10.299Z,7.32
2023-02-27T01:07:38.825Z,6.90
2023-02-27T01:10:09.829Z,6.98
2023-02-27T01:12:39.808Z,6.58
2023-02-27T01:15:10.630Z,6.90
2023-02-27T01:17:40.727Z,6.67
2023-02-27T01:20:11.416Z,6.70
2023-02-27T01:22:40.190Z,6.78
2023-02-27T01:25:09.568Z,6.68
2023-02-27T01:27:40.881Z,6.60
2023-02-27T01:30:12.644Z,6.34
2023-02-27T01:32:42.503Z,6.59
2023-02-27T01:35:13.109Z,6.21
2023-02-27T01:37:41.617Z,6.30
2023-02-27T01:40:12.136Z,6.32
2023-02-27T01:42:40.473Z,6.49
2023-02-27T01:45:32.228Z,6.65
2023-02-27T01:48:11.958Z,6.73
2023-02-27T01:50:48.169Z,6.59
2023-02-27T01:53:18.452Z,6.16
2023-02-27T01:55:48.274Z,6.89
2023-02-27T01:58:17.362Z,6.94
2023-02-27T02:00:46.512Z,7.01
2023-02-27T02:03:24.983Z,7.01
2023-02-27T02:05:57.035Z,6.97
2023-02-27T02:08:28.476Z,7.05
2023-02-27T02:10:59.513Z,7.04
2023-02-27T02:13:28.695Z,7.08
2023-02-27T02:16:17.948Z,7.10
2023-02-27T02:18:56.130Z,7.06
2023-02-27T02:22:10.780Z,7.03
2023-02-27T02:25:41.333Z,7.00
2023-02-27T02:28:30.340Z,7.04
2023-02-27T02:31:27.532Z,7.08
2023-02-27T02:34:54.554Z,7.03
2023-02-27T02:38:12.354Z,6.77
2023-02-27T02:40:49.053Z,6.97
2023-02-27T02:43:27.009Z,6.89
2023-02-27T02:46:05.247Z,6.95
2023-02-27T02:48:40.705Z,6.90
2023-02-27T02:51:19.543Z,6.94
2023-02-27T02:53:57.945Z,6.86
2023-02-27T02:56:33.802Z,6.91
2023-02-27T02:59:08.946Z,6.86
2023-02-27T03:01:42.199Z,6.86
2023-02-27T03:04:15.621Z,6.52
2023-02-27T03:06:48.710Z,6.74
2023-02-27T03:09:24.375Z,6.20
2023-02-27T03:11:56.492Z,6.70
2023-02-27T03:14:32.575Z,6.58
2023-02-27T03:17:06.830Z,6.76
2023-02-27T03:19:42.057Z,6.25
2023-02-27T03:22:16.779Z,6.68
2023-02-27T03:24:49.524Z,6.44
2023-02-27T03:27:20.350Z,6.53
2023-02-27T03:29:58.095Z,6.54
2023-02-27T03:32:32.763Z,6.45
2023-02-27T03:35:02.168Z,6.52
2023-02-27T03:37:42.781Z,6.39
2023-02-27T03:40:18.440Z,6.46
2023-02-27T03:42:54.991Z,6.48
2023-02-27T03:45:41.197Z,6.45
2023-02-27T03:48:10.228Z,6.14
2023-02-27T03:50:39.285Z,6.39
2023-02-27T03:53:13.973Z,6.46
2023-02-27T03:55:45.577Z,6.35
2023-02-27T03:58:15.826Z,6.38
2023-02-27T04:00:44.440Z,6.34
2023-02-27T04:03:13.241Z,6.33
2023-02-27T04:05:42.252Z,6.31
2023-02-27T04:08:40.272Z,6.24
2023-02-27T04:11:28.178Z,6.22
2023-02-27T04:14:16.129Z,6.29
2023-02-27T04:17:03.798Z,6.22
2023-02-27T04:19:51.905Z,6.14
2023-02-27T04:22:33.986Z,6.14
2023-02-27T04:25:23.690Z,6.10
2023-02-27T04:27:59.169Z,6.17
2023-02-27T04:30:39.834Z,6.13
2023-02-27T04:33:11.905Z,6.15
2023-02-27T04:35:48.773Z,6.17
2023-02-27T04:38:23.950Z,6.11
2023-02-27T04:40:57.819Z,6.21
2023-02-27T04:43:29.321Z,6.08
2023-02-27T04:46:01.557Z,6.10
2023-02-27T04:48:36.597Z,6.08
2023-02-27T04:51:11.432Z,6.07
2023-02-27T04:53:47.599Z,6.03
2023-02-27T04:56:22.976Z,6.00
2023-02-27T04:58:55.120Z,6.06
2023-02-27T05:01:33.377Z,6.06
2023-02-27T05:04:05.021Z,6.01
2023-02-27T05:06:39.378Z,5.99
2023-02-27T05:09:15.808Z,6.09
2023-02-27T05:11:50.921Z,6.08
2023-02-27T05:14:24.321Z,5.75
2023-02-27T05:17:04.102Z,6.00
2023-02-27T05:19:33.596Z,6.03
2023-02-27T05:22:14.782Z,5.82
2023-02-27T05:24:52.004Z,5.99
2023-02-27T05:27:34.791Z,6.00
2023-02-27T05:30:12.476Z,5.99
2023-02-27T05:32:49.548Z,6.06
2023-02-27T05:35:26.809Z,6.04
2023-02-27T05:38:05.124Z,6.00
2023-02-27T05:40:38.900Z,6.00
2023-02-27T05:43:13.334Z,5.96
2023-02-27T05:45:48.083Z,5.90
2023-02-27T05:48:23.408Z,5.84
2023-02-27T05:50:54.064Z,5.10
2023-02-27T05:53:23.397Z,5.95
2023-02-27T05:55:55.380Z,5.94
2023-02-27T05:58:27.999Z,5.96
2023-02-27T06:01:00.149Z,5.95
2023-02-27T06:03:32.856Z,5.93
2023-02-27T06:06:05.025Z,5.96
2023-02-27T06:08:33.660Z,5.95
2023-02-27T06:11:02.132Z,5.91
2023-02-27T06:13:30.520Z,5.91
2023-02-27T06:15:58.933Z,5.93
2023-02-27T06:18:27.272Z,5.95
2023-02-27T06:20:57.432Z,5.33
2023-02-27T06:23:25.917Z,5.96
2023-02-27T06:25:54.191Z,5.95
2023-02-27T06:28:22.520Z,6.01
2023-02-27T06:30:55.102Z,5.98
2023-02-27T06:33:23.552Z,6.03
2023-02-27T06:35:51.898Z,5.95
2023-02-27T06:38:21.895Z,6.01
2023-02-27T06:40:51.814Z,5.85
2023-02-27T06:43:22.811Z,5.46
2023-02-27T06:45:51.399Z,5.99
2023-02-27T06:48:19.652Z,6.06
2023-02-27T06:50:52.731Z,6.19
2023-02-27T06:53:22.492Z,6.22
2023-02-27T06:55:50.980Z,6.29
2023-02-27T06:58:19.542Z,6.43
2023-02-27T07:00:48.189Z,6.47
2023-02-27T07:03:16.611Z,6.48
2023-02-27T07:05:46.237Z,6.49
2023-02-27T07:08:17.650Z,6.56
2023-02-27T07:10:49.165Z,6.55
2023-02-27T07:13:19.713Z,6.56
2023-02-27T07:15:48.036Z,6.30
2023-02-27T07:18:16.394Z,6.48
2023-02-27T07:20:44.734Z,6.58
2023-02-27T07:23:13.004Z,6.22
2023-02-27T07:25:41.407Z,6.60
2023-02-27T07:28:11.150Z,6.64
2023-02-27T07:30:39.613Z,6.57
2023-02-27T07:33:07.936Z,6.84
2023-02-27T07:35:36.397Z,6.82
2023-02-27T07:38:05.213Z,7.02
2023-02-27T07:40:33.582Z,7.33
2023-02-27T07:43:01.876Z,7.72
2023-02-27T07:45:31.661Z,8.29
2023-02-27T07:48:00.110Z,8.63
2023-02-27T07:50:28.490Z,9.18
2023-02-27T07:52:56.947Z,9.71
2023-02-27T07:55:25.253Z,10.19
2023-02-27T07:57:53.734Z,10.61
2023-02-27T08:00:23.221Z,10.79
2023-02-27T08:02:52.960Z,11.17
2023-02-27T08:05:21.421Z,11.40
2023-02-27T08:07:49.707Z,11.49
2023-02-27T08:10:19.041Z,11.88
2023-02-27T08:12:47.555Z,12.36
2023-02-27T08:15:17.232Z,12.41
2023-02-27T08:17:47.066Z,12.59
2023-02-27T08:20:19.019Z,12.94
2023-02-27T08:22:47.388Z,13.03
2023-02-27T08:25:16.201Z,13.32
2023-02-27T08:27:44.863Z,12.78
2023-02-27T08:30:14.575Z,13.19
2023-02-27T08:32:43.464Z,13.25
2023-02-27T08:35:11.758Z,13.16
2023-02-27T08:37:41.497Z,13.27
2023-02-27T08:40:12.104Z,13.44
2023-02-27T08:42:40.490Z,13.59
2023-02-27T08:45:11.817Z,13.91
2023-02-27T08:47:40.237Z,14.03
2023-02-27T08:50:10.430Z,14.05
2023-02-27T08:52:40.567Z,13.94
2023-02-27T08:55:10.275Z,14.22
2023-02-27T08:57:39.184Z,14.19
2023-02-27T09:00:10.807Z,14.25
2023-02-27T09:02:39.192Z,14.10
2023-02-27T09:05:08.699Z,14.15
2023-02-27T09:07:37.330Z,14.05
2023-02-27T09:10:08.520Z,14.12
2023-02-27T09:12:37.617Z,14.20
2023-02-27T09:15:07.342Z,14.09
2023-02-27T09:17:35.710Z,13.99
2023-02-27T09:20:05.149Z,14.03
2023-02-27T09:22:34.021Z,13.99
2023-02-27T09:25:02.410Z,14.03
2023-02-27T09:27:32.500Z,14.04
2023-02-27T09:30:00.911Z,13.93
2023-02-27T09:32:29.513Z,12.73
2023-02-27T09:34:58.602Z,11.71
2023-02-27T09:37:27.086Z,11.37
2023-02-27T09:39:55.416Z,10.00
2023-02-27T09:42:27.697Z,9.67
2023-02-27T09:45:00.347Z,10.03
2023-02-27T09:47:34.875Z,10.77
2023-02-27T09:50:06.428Z,10.26
2023-02-27T09:52:38.682Z,10.36
2023-02-27T09:55:12.876Z,10.27
2023-02-27T09:57:48.478Z,9.92
2023-02-27T10:00:36.271Z,10.82
2023-02-27T10:03:24.190Z,11.23
2023-02-27T10:06:07.099Z,11.44
2023-02-27T10:08:41.973Z,10.75
2023-02-27T10:11:15.412Z,10.03
2023-02-27T10:13:58.314Z,10.97
2023-02-27T10:16:29.793Z,9.93
2023-02-27T10:19:01.374Z,10.39
2023-02-27T10:21:35.461Z,10.86
2023-02-27T10:24:12.303Z,10.14
2023-02-27T10:26:43.626Z,10.23
2023-02-27T10:29:20.399Z,10.47
2023-02-27T10:31:56.666Z,9.57
2023-02-27T10:34:26.738Z,9.88
2023-02-27T10:36:55.382Z,9.64
2023-02-27T10:39:25.647Z,9.88
2023-02-27T10:41:54.320Z,9.80
2023-02-27T10:44:24.490Z,9.68
2023-02-27T10:46:54.242Z,10.09
2023-02-27T10:49:23.670Z,10.04
2023-02-27T10:52:08.994Z,9.95
2023-02-27T10:54:38.114Z,10.46
2023-02-27T10:57:21.010Z,11.11
2023-02-27T10:59:57.801Z,10.61
2023-02-27T11:02:33.916Z,9.22
2023-02-27T11:05:02.401Z,9.86
2023-02-27T11:07:34.764Z,8.95
2023-02-27T11:10:19.926Z,9.50
2023-02-27T11:13:05.478Z,9.71
2023-02-27T11:15:36.140Z,8.85
2023-02-27T11:18:29.254Z,9.42
2023-02-27T11:21:20.645Z,7.97
2023-02-27T11:23:59.820Z,8.46
2023-02-27T11:26:33.046Z,9.20
2023-02-27T11:29:18.386Z,9.81
2023-02-27T11:31:53.857Z,9.87
2023-02-27T11:34:31.654Z,10.09
2023-02-27T11:37:03.760Z,10.43
2023-02-27T11:39:37.846Z,11.00
2023-02-27T11:42:27.682Z,11.24
2023-02-27T11:44:59.791Z,11.18
2023-02-27T11:47:32.264Z,11.39
2023-02-27T11:50:48.720Z,9.65
2023-02-27T11:54:05.446Z,9.66
2023-02-27T11:56:37.699Z,8.63
2023-02-27T11:59:19.038Z,9.07
2023-02-27T12:01:53.880Z,8.98
2023-02-27T12:04:28.641Z,9.33
2023-02-27T12:07:03.819Z,9.27
2023-02-27T12:09:45.850Z,8.70
2023-02-27T12:12:23.729Z,9.33
2023-02-27T12:15:03.354Z,9.06
2023-02-27T12:17:36.777Z,8.73
2023-02-27T12:20:24.937Z,9.37
2023-02-27T12:22:55.978Z,9.81
2023-02-27T12:25:37.419Z,10.24
2023-02-27T12:28:20.398Z,10.63
2023-02-27T12:31:02.468Z,10.86
2023-02-27T12:33:40.807Z,11.06
2023-02-27T12:36:13.822Z,10.95
2023-02-27T12:38:43.861Z,10.69
2023-02-27T12:41:44.196Z,10.31
2023-02-27T12:44:41.856Z,10.03
2023-02-27T12:47:27.869Z,10.09
2023-02-27T12:50:02.588Z,10.31
2023-02-27T12:52:47.315Z,10.59
2023-02-27T12:55:20.672Z,10.74
2023-02-27T12:58:25.297Z,10.45
2023-02-27T13:01:00.884Z,10.55
2023-02-27T13:03:35.535Z,10.46
2023-02-27T13:06:15.890Z,10.04
2023-02-27T13:09:07.009Z,10.10
2023-02-27T13:11:48.247Z,10.35
2023-02-27T13:14:32.332Z,10.62
2023-02-27T13:17:06.763Z,10.78
2023-02-27T13:19:41.127Z,10.90
2023-02-27T13:22:19.744Z,11.12
2023-02-27T13:24:52.808Z,10.88
2023-02-27T13:27:28.594Z,10.88
2023-02-27T13:30:17.819Z,9.88
2023-02-27T13:32:54.131Z,10.12
2023-02-27T13:35:46.799Z,9.80
2023-02-27T13:38:35.977Z,9.95
2023-02-27T13:41:39.716Z,10.35
2023-02-27T13:44:52.875Z,10.29
2023-02-27T13:47:49.918Z,9.74
2023-02-27T13:50:51.704Z,9.99
2023-02-27T13:53:22.571Z,10.48
2023-02-27T13:55:53.450Z,10.70
2023-02-27T13:58:24.735Z,10.84
2023-02-27T14:01:01.488Z,10.84
2023-02-27T14:03:32.176Z,10.95
2023-02-27T14:06:04.129Z,10.98
2023-02-27T14:08:40.881Z,10.26
2023-02-27T14:11:22.816Z,10.07
2023-02-27T14:14:38.905Z,10.19
2023-02-27T14:17:12.046Z,10.38
2023-02-27T14:19:56.953Z,10.54
2023-02-27T14:22:42.614Z,10.61
2023-02-27T14:25:32.894Z,10.70
2023-02-27T14:28:02.280Z,10.76
2023-02-27T14:30:41.752Z,10.78
2023-02-27T14:33:40.330Z,10.96
2023-02-27T14:36:16.802Z,10.99
2023-02-27T14:38:45.362Z,10.87
2023-02-27T14:41:38.262Z,10.99
2023-02-27T14:44:06.781Z,10.81
2023-02-27T14:46:40.416Z,10.70
2023-02-27T14:49:24.722Z,10.74
2023-02-27T14:51:53.177Z,10.75
2023-02-27T14:54:23.699Z,10.63
2023-02-27T14:56:57.264Z,10.52
2023-02-27T14:59:28.480Z,10.51
2023-02-27T15:02:01.950Z,10.54
2023-02-27T15:04:34.353Z,10.35
2023-02-27T15:07:04.080Z,10.25
2023-02-27T15:09:40.586Z,10.17
2023-02-27T15:12:11.568Z,10.28
2023-02-27T15:14:41.346Z,10.18
2023-02-27T15:17:17.908Z,10.22
2023-02-27T15:19:53.606Z,10.29
2023-02-27T15:22:38.142Z,10.39
2023-02-27T15:25:09.189Z,10.40
2023-02-27T15:27:38.566Z,10.34
2023-02-27T15:30:18.834Z,10.17
2023-02-27T15:32:47.281Z,10.22
2023-02-27T15:35:23.390Z,10.16
2023-02-27T15:37:54.684Z,10.28
2023-02-27T15:40:26.454Z,10.30
2023-02-27T15:42:55.733Z,10.32
2023-02-27T15:45:28.588Z,10.13
2023-02-27T15:47:57.528Z,10.14
2023-02-27T15:50:32.607Z,9.89
2023-02-27T15:53:05.506Z,9.94
2023-02-27T15:55:37.390Z,9.95
2023-02-27T15:58:21.156Z,9.98
2023-02-27T16:00:53.014Z,10.08
2023-02-27T16:03:24.813Z,9.95
2023-02-27T16:05:54.626Z,10.03
2023-02-27T16:08:23.194Z,9.99
2023-02-27T16:10:52.993Z,9.91
2023-02-27T16:13:23.880Z,9.88
2023-02-27T16:16:04.185Z,9.93
2023-02-27T16:18:36.323Z,9.77
2023-02-27T16:21:15.376Z,9.76
2023-02-27T16:23:45.321Z,9.59
2023-02-27T16:26:31.638Z,9.70
2023-02-27T16:29:03.819Z,9.73
2023-02-27T16:31:35.091Z,9.56
2023-02-27T16:34:15.962Z,9.40
2023-02-27T16:36:55.436Z,9.25
2023-02-27T16:39:24.146Z,9.14
2023-02-27T16:41:54.434Z,9.33
2023-02-27T16:44:24.313Z,9.21
2023-02-27T16:46:53.036Z,9.21
2023-02-27T16:49:24.428Z,9.37
2023-02-27T16:51:54.449Z,9.52
2023-02-27T16:54:23.599Z,9.57
2023-02-27T16:56:52.745Z,9.52
2023-02-27T16:59:31.664Z,9.51
2023-02-27T17:02:02.658Z,9.54
2023-02-27T17:04:31.878Z,9.23
2023-02-27T17:07:06.344Z,9.43
2023-02-27T17:09:35.213Z,9.37
2023-02-27T17:12:03.553Z,9.40
2023-02-27T17:14:31.868Z,9.39
2023-02-27T17:17:00.213Z,9.34
2023-02-27T17:19:28.848Z,9.29
2023-02-27T17:21:57.460Z,9.25
2023-02-27T17:24:27.231Z,9.20
2023-02-27T17:26:55.752Z,9.18
2023-02-27T17:29:24.962Z,9.21
2023-02-27T17:31:53.695Z,9.12
2023-02-27T17:34:22.357Z,9.08
2023-02-27T17:36:51.168Z,9.02
2023-02-27T17:39:19.466Z,9.04
2023-02-27T17:41:49.325Z,9.07
2023-02-27T17:44:17.606Z,9.11
2023-02-27T17:46:45.889Z,9.07
2023-02-27T17:49:15.108Z,9.13
2023-02-27T17:51:43.351Z,9.07
2023-02-27T17:54:11.733Z,9.12
2023-02-27T17:56:40.152Z,9.09
2023-02-27T17:59:10.884Z,9.09
2023-02-27T18:01:39.336Z,9.09
2023-02-27T18:04:11.255Z,9.09
2023-02-27T18:06:40.020Z,8.23
2023-02-27T18:09:08.350Z,9.01
2023-02-27T18:11:37.960Z,8.97
2023-02-27T18:14:06.909Z,8.93
2023-02-27T18:16:36.637Z,8.98
2023-02-27T18:19:06.885Z,9.07
2023-02-27T18:21:35.450Z,9.12
2023-02-27T18:24:04.164Z,9.03
2023-02-27T18:26:34.672Z,9.07
2023-02-27T18:29:07.585Z,9.01
2023-02-27T18:31:40.020Z,9.09
2023-02-27T18:34:08.994Z,9.10
2023-02-27T18:36:38.088Z,9.05
2023-02-27T18:39:07.900Z,9.07
2023-02-27T18:41:36.854Z,9.01
2023-02-27T18:44:05.947Z,9.03
2023-02-27T18:46:37.932Z,8.45
2023-02-27T18:49:06.655Z,9.03
2023-02-27T18:51:34.915Z,9.03
2023-02-27T18:54:05.146Z,9.03
2023-02-27T18:56:33.754Z,9.00
2023-02-27T18:59:05.192Z,9.05
2023-02-27T19:01:39.132Z,9.04
2023-02-27T19:04:09.724Z,8.98
2023-02-27T19:06:40.791Z,8.95
2023-02-27T19:09:12.318Z,8.81
2023-02-27T19:11:41.065Z,8.98
2023-02-27T19:14:13.627Z,9.00
2023-02-27T19:16:44.257Z,8.87
2023-02-27T19:19:12.717Z,8.86
2023-02-27T19:21:41.304Z,8.84
2023-02-27T19:24:10.885Z,8.87
2023-02-27T19:26:39.575Z,8.59
2023-02-27T19:29:08.265Z,8.80
2023-02-27T19:31:36.609Z,8.85
2023-02-27T19:34:06.490Z,8.80
2023-02-27T19:36:35.632Z,8.69
2023-02-27T19:39:05.250Z,8.70
2023-02-27T19:41:33.812Z,8.50
2023-02-27T19:44:02.164Z,8.62
2023-02-27T19:46:33.996Z,8.65
2023-02-27T19:49:06.431Z,8.59
2023-02-27T19:51:35.429Z,8.58
2023-02-27T19:54:04.087Z,8.59
2023-02-27T19:56:32.777Z,8.52
2023-02-27T19:59:02.290Z,8.49
2023-02-27T20:01:32.820Z,8.53
2023-02-27T20:04:02.726Z,8.55
2023-02-27T20:06:41.592Z,8.44
2023-02-27T20:09:11.535Z,8.44
2023-02-27T20:11:40.293Z,8.27
2023-02-27T20:14:09.022Z,8.43
2023-02-27T20:16:37.664Z,8.39
2023-02-27T20:19:06.998Z,8.39
2023-02-27T20:21:37.170Z,8.43
2023-02-27T20:24:06.336Z,8.36
2023-02-27T20:26:37.558Z,8.37
2023-02-27T20:29:10.513Z,8.45
2023-02-27T20:31:42.397Z,8.16
2023-02-27T20:34:13.277Z,8.35
2023-02-27T20:36:44.306Z,8.34
2023-02-27T20:39:13.712Z,8.28
2023-02-27T20:41:42.089Z,8.34
2023-02-27T20:44:11.494Z,8.40
2023-02-27T20:46:42.398Z,8.39
2023-02-27T20:49:14.427Z,8.30
2023-02-27T20:51:45.031Z,8.23
2023-02-27T20:54:19.955Z,8.21
2023-02-27T20:56:51.884Z,8.23
2023-02-27T20:59:22.152Z,8.16
2023-02-27T21:01:52.382Z,8.15
2023-02-27T21:04:23.202Z,8.12
2023-02-27T21:06:54.652Z,8.10
2023-02-27T21:09:22.998Z,8.10
2023-02-27T21:11:51.246Z,8.15
2023-02-27T21:14:19.564Z,8.07
2023-02-27T21:16:47.838Z,8.02
2023-02-27T21:19:16.216Z,7.97
2023-02-27T21:21:44.605Z,8.00
2023-02-27T21:24:14.690Z,8.01
2023-02-27T21:26:43.561Z,7.92
2023-02-27T21:29:14.782Z,7.94
2023-02-27T21:31:45.729Z,7.97
2023-02-27T21:34:17.189Z,7.92
2023-02-27T21:36:46.337Z,7.76
2023-02-27T21:39:19.634Z,7.93
2023-02-27T21:41:49.245Z,7.94
2023-02-27T21:44:20.569Z,7.83
2023-02-27T21:46:49.503Z,7.89
2023-02-27T21:49:19.995Z,7.89
2023-02-27T21:51:48.898Z,7.94
2023-02-27T21:54:20.150Z,7.88
2023-02-27T21:56:49.632Z,7.88
2023-02-27T21:59:19.180Z,7.89
2023-02-27T22:01:48.592Z,7.87
2023-02-27T22:04:18.701Z,7.83
2023-02-27T22:06:47.920Z,7.82
2023-02-27T22:09:18.196Z,7.81
2023-02-27T22:11:46.863Z,7.82
2023-02-27T22:14:15.159Z,7.83
2023-02-27T22:16:43.929Z,7.76
2023-02-27T22:19:19.715Z,7.75
2023-02-27T22:21:48.108Z,7.71
2023-02-27T22:24:18.299Z,7.69
2023-02-27T22:26:47.790Z,7.55
2023-02-27T22:29:17.032Z,7.68
2023-02-27T22:31:45.636Z,7.67
2023-02-27T22:34:18.166Z,7.64
2023-02-27T22:36:48.501Z,7.61
2023-02-27T22:39:18.254Z,7.59
2023-02-27T22:41:47.128Z,7.50
2023-02-27T22:44:17.619Z,7.55
2023-02-27T22:46:48.671Z,7.48
2023-02-27T22:49:19.433Z,7.39
2023-02-27T22:51:50.825Z,7.55
2023-02-27T22:54:22.762Z,7.49
2023-02-27T22:56:52.383Z,7.53
2023-02-27T22:59:21.101Z,7.52
2023-02-27T23:01:50.387Z,7.44
2023-02-27T23:04:18.815Z,7.51
2023-02-27T23:06:47.158Z,7.40
2023-02-27T23:09:17.745Z,7.47
2023-02-27T23:11:47.738Z,7.44
2023-02-27T23:14:16.462Z,7.48
2023-02-27T23:16:46.499Z,7.49
2023-02-27T23:19:17.390Z,7.47
2023-02-27T23:21:45.921Z,7.44
2023-02-27T23:24:17.271Z,7.42
2023-02-27T23:26:49.357Z,7.40
2023-02-27T23:29:18.658Z,7.25
2023-02-27T23:31:47.089Z,7.27
2023-02-27T23:34:15.580Z,7.34
2023-02-27T23:36:43.908Z,7.33
2023-02-27T23:39:12.257Z,7.24
2023-02-27T23:41:40.627Z,7.24
2023-02-27T23:44:10.358Z,7.23
2023-02-27T23:46:39.559Z,7.19
2023-02-27T23:49:08.748Z,7.19
2023-02-27T23:51:37.329Z,7.23
2023-02-27T23:54:05.880Z,7.21
2023-02-27T23:56:34.219Z,7.22
2023-02-27T23:59:05.347Z,7.25
